sensor_id;sensor_type;location;lat;lon;timestamp;temperature;humidity
37412;DHT22;23278;52.110;6.050;2024-01-16T00:00:07;0.80;99.90
37412;DHT22;23278;52.110;6.050;2024-01-16T00:02:34;0.80;99.90
37412;DHT22;23278;52.110;6.050;2024-01-16T00:05:00;0.80;99.90
37412;DHT22;23278;52.110;6.050;2024-01-16T00:07:26;0.70;99.90
37412;DHT22;23278;52.110;6.050;2024-01-16T00:09:52;0.70;99.90
37412;DHT22;23278;52.110;6.050;2024-01-16T00:12:19;0.60;99.90
37412;DHT22;23278;52.110;6.050;2024-01-16T00:14:45;0.60;99.90
37412;DHT22;23278;52.110;6.050;2024-01-16T00:17:11;0.60;99.90
37412;DHT22;23278;52.110;6.050;2024-01-16T00:19:37;0.60;99.90
37412;DHT22;23278;52.110;6.050;2024-01-16T00:22:03;0.50;99.90
37412;DHT22;23278;52.110;6.050;2024-01-16T00:24:30;0.50;99.90
37412;DHT22;23278;52.110;6.050;2024-01-16T00:26:57;0.50;99.90
37412;DHT22;23278;52.110;6.050;2024-01-16T00:29:23;0.40;99.90
37412;DHT22;23278;52.110;6.050;2024-01-16T00:31:49;0.40;99.90
37412;DHT22;23278;52.110;6.050;2024-01-16T00:34:15;0.40;99.90
37412;DHT22;23278;52.110;6.050;2024-01-16T00:36:41;0.40;99.90
37412;DHT22;23278;52.110;6.050;2024-01-16T00:39:07;0.50;99.90
37412;DHT22;23278;52.110;6.050;2024-01-16T00:41:33;0.40;99.90
37412;DHT22;23278;52.110;6.050;2024-01-16T00:43:59;0.40;99.90
37412;DHT22;23278;52.110;6.050;2024-01-16T00:46:25;0.50;99.90
37412;DHT22;23278;52.110;6.050;2024-01-16T00:48:51;0.50;99.90
37412;DHT22;23278;52.110;6.050;2024-01-16T00:51:17;0.50;99.90
37412;DHT22;23278;52.110;6.050;2024-01-16T00:53:43;0.60;99.90
37412;DHT22;23278;52.110;6.050;2024-01-16T00:56:10;0.70;99.90
37412;DHT22;23278;52.110;6.050;2024-01-16T00:58:36;0.80;99.90
37412;DHT22;23278;52.110;6.050;2024-01-16T01:01:03;0.80;99.90
37412;DHT22;23278;52.110;6.050;2024-01-16T01:03:29;0.80;99.90
37412;DHT22;23278;52.110;6.050;2024-01-16T01:05:55;0.70;99.90
37412;DHT22;23278;52.110;6.050;2024-01-16T01:08:21;0.70;99.90
37412;DHT22;23278;52.110;6.050;2024-01-16T01:10:47;0.70;99.90
37412;DHT22;23278;52.110;6.050;2024-01-16T01:13:13;0.70;99.90
37412;DHT22;23278;52.110;6.050;2024-01-16T01:15:39;0.70;99.90
37412;DHT22;23278;52.110;6.050;2024-01-16T01:18:05;0.70;99.90
37412;DHT22;23278;52.110;6.050;2024-01-16T01:20:32;0.70;99.90
37412;DHT22;23278;52.110;6.050;2024-01-16T01:22:58;0.70;99.90
37412;DHT22;23278;52.110;6.050;2024-01-16T01:25:25;0.80;99.90
37412;DHT22;23278;52.110;6.050;2024-01-16T01:27:52;0.90;99.90
37412;DHT22;23278;52.110;6.050;2024-01-16T01:30:18;1.00;99.90
37412;DHT22;23278;52.110;6.050;2024-01-16T01:32:43;1.00;99.90
37412;DHT22;23278;52.110;6.050;2024-01-16T01:35:09;1.00;99.90
37412;DHT22;23278;52.110;6.050;2024-01-16T01:37:37;1.00;99.90
37412;DHT22;23278;52.110;6.050;2024-01-16T01:40:04;0.90;99.90
37412;DHT22;23278;52.110;6.050;2024-01-16T01:42:30;0.80;99.90
37412;DHT22;23278;52.110;6.050;2024-01-16T01:44:56;0.80;99.90
37412;DHT22;23278;52.110;6.050;2024-01-16T01:47:22;0.70;99.90
37412;DHT22;23278;52.110;6.050;2024-01-16T01:49:48;0.70;99.90
37412;DHT22;23278;52.110;6.050;2024-01-16T01:52:14;0.60;99.90
37412;DHT22;23278;52.110;6.050;2024-01-16T01:54:41;0.60;99.90
37412;DHT22;23278;52.110;6.050;2024-01-16T01:57:08;0.60;99.90
37412;DHT22;23278;52.110;6.050;2024-01-16T01:59:35;0.50;99.90
37412;DHT22;23278;52.110;6.050;2024-01-16T02:02:02;0.50;99.90
37412;DHT22;23278;52.110;6.050;2024-01-16T02:04:29;0.50;99.90
37412;DHT22;23278;52.110;6.050;2024-01-16T02:06:57;0.40;99.90
37412;DHT22;23278;52.110;6.050;2024-01-16T02:09:23;0.40;99.90
37412;DHT22;23278;52.110;6.050;2024-01-16T02:11:49;0.40;99.90
37412;DHT22;23278;52.110;6.050;2024-01-16T02:14:15;0.40;99.90
37412;DHT22;23278;52.110;6.050;2024-01-16T02:16:42;0.40;99.90
37412;DHT22;23278;52.110;6.050;2024-01-16T02:19:10;0.30;99.90
37412;DHT22;23278;52.110;6.050;2024-01-16T02:21:43;0.30;99.90
37412;DHT22;23278;52.110;6.050;2024-01-16T02:24:11;0.30;99.90
37412;DHT22;23278;52.110;6.050;2024-01-16T02:26:37;0.30;99.90
37412;DHT22;23278;52.110;6.050;2024-01-16T02:29:03;0.40;99.90
37412;DHT22;23278;52.110;6.050;2024-01-16T02:31:31;0.40;99.90
37412;DHT22;23278;52.110;6.050;2024-01-16T02:33:57;0.40;99.90
37412;DHT22;23278;52.110;6.050;2024-01-16T02:36:27;0.50;99.90
37412;DHT22;23278;52.110;6.050;2024-01-16T02:38:53;0.50;99.90
37412;DHT22;23278;52.110;6.050;2024-01-16T02:41:19;0.60;99.90
37412;DHT22;23278;52.110;6.050;2024-01-16T02:43:46;0.60;99.90
37412;DHT22;23278;52.110;6.050;2024-01-16T02:46:13;0.70;99.90
37412;DHT22;23278;52.110;6.050;2024-01-16T02:48:39;0.80;99.90
37412;DHT22;23278;52.110;6.050;2024-01-16T02:51:05;0.80;99.90
37412;DHT22;23278;52.110;6.050;2024-01-16T02:53:31;0.90;99.90
37412;DHT22;23278;52.110;6.050;2024-01-16T02:55:57;0.90;99.90
37412;DHT22;23278;52.110;6.050;2024-01-16T02:58:27;0.90;99.90
37412;DHT22;23278;52.110;6.050;2024-01-16T03:00:53;1.00;99.90
37412;DHT22;23278;52.110;6.050;2024-01-16T03:03:19;1.00;99.90
37412;DHT22;23278;52.110;6.050;2024-01-16T03:05:47;1.00;99.90
37412;DHT22;23278;52.110;6.050;2024-01-16T03:08:13;1.00;99.90
37412;DHT22;23278;52.110;6.050;2024-01-16T03:10:39;1.10;99.90
37412;DHT22;23278;52.110;6.050;2024-01-16T03:13:05;1.10;99.90
37412;DHT22;23278;52.110;6.050;2024-01-16T03:15:31;1.10;99.90
37412;DHT22;23278;52.110;6.050;2024-01-16T03:17:58;1.10;99.90
37412;DHT22;23278;52.110;6.050;2024-01-16T03:20:24;1.10;99.90
37412;DHT22;23278;52.110;6.050;2024-01-16T03:22:50;1.10;99.90
37412;DHT22;23278;52.110;6.050;2024-01-16T03:25:16;1.10;99.90
37412;DHT22;23278;52.110;6.050;2024-01-16T03:27:42;1.10;99.90
37412;DHT22;23278;52.110;6.050;2024-01-16T03:30:10;1.10;99.90
37412;DHT22;23278;52.110;6.050;2024-01-16T03:32:37;1.10;99.90
37412;DHT22;23278;52.110;6.050;2024-01-16T03:35:04;1.10;99.90
37412;DHT22;23278;52.110;6.050;2024-01-16T03:37:30;1.10;99.90
37412;DHT22;23278;52.110;6.050;2024-01-16T03:39:56;1.10;99.90
37412;DHT22;23278;52.110;6.050;2024-01-16T03:42:23;1.10;99.90
37412;DHT22;23278;52.110;6.050;2024-01-16T03:44:49;1.20;99.90
37412;DHT22;23278;52.110;6.050;2024-01-16T03:47:15;1.10;99.90
37412;DHT22;23278;52.110;6.050;2024-01-16T03:49:41;1.10;99.90
37412;DHT22;23278;52.110;6.050;2024-01-16T03:52:08;1.20;99.90
37412;DHT22;23278;52.110;6.050;2024-01-16T03:54:34;1.20;99.90
37412;DHT22;23278;52.110;6.050;2024-01-16T03:57:00;1.20;99.90
37412;DHT22;23278;52.110;6.050;2024-01-16T03:59:26;1.20;99.90
37412;DHT22;23278;52.110;6.050;2024-01-16T04:01:52;1.20;99.90
37412;DHT22;23278;52.110;6.050;2024-01-16T04:04:18;1.30;99.90
37412;DHT22;23278;52.110;6.050;2024-01-16T04:06:44;1.20;99.90
37412;DHT22;23278;52.110;6.050;2024-01-16T04:09:10;1.30;99.90
37412;DHT22;23278;52.110;6.050;2024-01-16T04:11:36;1.30;99.90
37412;DHT22;23278;52.110;6.050;2024-01-16T04:14:02;1.30;99.90
37412;DHT22;23278;52.110;6.050;2024-01-16T04:16:28;1.40;99.90
37412;DHT22;23278;52.110;6.050;2024-01-16T04:18:54;1.40;99.90
37412;DHT22;23278;52.110;6.050;2024-01-16T04:21:20;1.40;99.90
37412;DHT22;23278;52.110;6.050;2024-01-16T04:23:46;1.40;99.90
37412;DHT22;23278;52.110;6.050;2024-01-16T04:26:13;1.40;99.90
37412;DHT22;23278;52.110;6.050;2024-01-16T04:28:39;1.50;99.90
37412;DHT22;23278;52.110;6.050;2024-01-16T04:31:05;1.50;99.90
37412;DHT22;23278;52.110;6.050;2024-01-16T04:33:31;1.40;99.90
37412;DHT22;23278;52.110;6.050;2024-01-16T04:35:57;1.40;99.90
37412;DHT22;23278;52.110;6.050;2024-01-16T04:38:23;1.40;99.90
37412;DHT22;23278;52.110;6.050;2024-01-16T04:40:50;1.40;99.90
37412;DHT22;23278;52.110;6.050;2024-01-16T04:43:16;1.40;99.90
37412;DHT22;23278;52.110;6.050;2024-01-16T04:45:42;1.40;99.90
37412;DHT22;23278;52.110;6.050;2024-01-16T04:48:08;1.40;99.90
37412;DHT22;23278;52.110;6.050;2024-01-16T04:50:34;1.30;99.90
37412;DHT22;23278;52.110;6.050;2024-01-16T04:53:01;1.30;99.90
37412;DHT22;23278;52.110;6.050;2024-01-16T04:55:28;1.20;99.90
37412;DHT22;23278;52.110;6.050;2024-01-16T04:57:55;1.10;99.90
37412;DHT22;23278;52.110;6.050;2024-01-16T05:00:23;1.10;99.90
37412;DHT22;23278;52.110;6.050;2024-01-16T05:02:49;1.00;99.90
37412;DHT22;23278;52.110;6.050;2024-01-16T05:05:15;0.90;99.90
37412;DHT22;23278;52.110;6.050;2024-01-16T05:07:44;0.90;99.90
37412;DHT22;23278;52.110;6.050;2024-01-16T05:10:14;0.80;99.90
37412;DHT22;23278;52.110;6.050;2024-01-16T05:12:41;0.80;99.90
37412;DHT22;23278;52.110;6.050;2024-01-16T05:15:11;0.90;99.90
37412;DHT22;23278;52.110;6.050;2024-01-16T05:17:37;0.90;99.90
37412;DHT22;23278;52.110;6.050;2024-01-16T05:20:04;0.90;99.90
37412;DHT22;23278;52.110;6.050;2024-01-16T05:22:30;0.90;99.90
37412;DHT22;23278;52.110;6.050;2024-01-16T05:24:56;1.00;99.90
37412;DHT22;23278;52.110;6.050;2024-01-16T05:27:23;1.00;99.90
37412;DHT22;23278;52.110;6.050;2024-01-16T05:29:49;1.00;99.90
37412;DHT22;23278;52.110;6.050;2024-01-16T05:32:15;1.00;99.90
37412;DHT22;23278;52.110;6.050;2024-01-16T05:34:41;1.00;99.90
37412;DHT22;23278;52.110;6.050;2024-01-16T05:37:07;1.00;99.90
37412;DHT22;23278;52.110;6.050;2024-01-16T05:39:33;1.10;99.90
37412;DHT22;23278;52.110;6.050;2024-01-16T05:42:02;1.10;99.90
37412;DHT22;23278;52.110;6.050;2024-01-16T05:44:28;1.10;99.90
37412;DHT22;23278;52.110;6.050;2024-01-16T05:46:54;1.20;99.90
37412;DHT22;23278;52.110;6.050;2024-01-16T05:49:21;1.20;99.90
37412;DHT22;23278;52.110;6.050;2024-01-16T05:51:50;1.20;99.90
37412;DHT22;23278;52.110;6.050;2024-01-16T05:54:15;1.20;99.90
37412;DHT22;23278;52.110;6.050;2024-01-16T05:56:41;1.30;99.90
37412;DHT22;23278;52.110;6.050;2024-01-16T05:59:07;1.30;99.90
37412;DHT22;23278;52.110;6.050;2024-01-16T06:06:29;1.40;99.90
37412;DHT22;23278;52.110;6.050;2024-01-16T06:08:56;1.40;99.90
37412;DHT22;23278;52.110;6.050;2024-01-16T06:11:33;1.30;99.90
37412;DHT22;23278;52.110;6.050;2024-01-16T06:14:03;1.40;99.90
37412;DHT22;23278;52.110;6.050;2024-01-16T06:16:31;1.30;99.90
37412;DHT22;23278;52.110;6.050;2024-01-16T06:18:57;1.30;99.90
37412;DHT22;23278;52.110;6.050;2024-01-16T06:21:23;1.20;99.90
37412;DHT22;23278;52.110;6.050;2024-01-16T06:23:49;1.20;99.90
37412;DHT22;23278;52.110;6.050;2024-01-16T06:26:15;1.20;99.90
37412;DHT22;23278;52.110;6.050;2024-01-16T06:28:44;1.20;99.90
37412;DHT22;23278;52.110;6.050;2024-01-16T06:31:10;1.20;99.90
37412;DHT22;23278;52.110;6.050;2024-01-16T06:33:37;1.20;99.90
37412;DHT22;23278;52.110;6.050;2024-01-16T06:36:03;1.10;99.90
37412;DHT22;23278;52.110;6.050;2024-01-16T06:38:32;1.10;99.90
37412;DHT22;23278;52.110;6.050;2024-01-16T06:40:59;1.10;99.90
37412;DHT22;23278;52.110;6.050;2024-01-16T06:43:26;1.00;99.90
37412;DHT22;23278;52.110;6.050;2024-01-16T06:45:52;1.00;99.90
37412;DHT22;23278;52.110;6.050;2024-01-16T06:48:18;1.00;99.90
37412;DHT22;23278;52.110;6.050;2024-01-16T06:50:45;1.00;99.90
37412;DHT22;23278;52.110;6.050;2024-01-16T06:53:12;1.00;99.90
37412;DHT22;23278;52.110;6.050;2024-01-16T06:55:38;0.90;99.90
37412;DHT22;23278;52.110;6.050;2024-01-16T06:58:04;0.90;99.90
37412;DHT22;23278;52.110;6.050;2024-01-16T07:00:33;1.00;99.90
37412;DHT22;23278;52.110;6.050;2024-01-16T07:02:59;1.10;99.90
37412;DHT22;23278;52.110;6.050;2024-01-16T07:05:25;1.10;99.90
37412;DHT22;23278;52.110;6.050;2024-01-16T07:07:54;1.20;99.90
37412;DHT22;23278;52.110;6.050;2024-01-16T07:10:20;1.20;99.90
37412;DHT22;23278;52.110;6.050;2024-01-16T07:12:48;1.20;99.90
37412;DHT22;23278;52.110;6.050;2024-01-16T07:15:15;1.20;99.90
37412;DHT22;23278;52.110;6.050;2024-01-16T07:17:41;1.30;99.90
37412;DHT22;23278;52.110;6.050;2024-01-16T07:20:07;1.30;99.90
37412;DHT22;23278;52.110;6.050;2024-01-16T07:22:33;1.30;99.90
37412;DHT22;23278;52.110;6.050;2024-01-16T07:25:02;1.30;99.90
37412;DHT22;23278;52.110;6.050;2024-01-16T07:27:32;1.30;99.90
37412;DHT22;23278;52.110;6.050;2024-01-16T07:30:00;1.30;99.90
37412;DHT22;23278;52.110;6.050;2024-01-16T07:32:26;1.30;99.90
37412;DHT22;23278;52.110;6.050;2024-01-16T07:35:02;1.30;99.90
37412;DHT22;23278;52.110;6.050;2024-01-16T07:37:28;1.30;99.90
37412;DHT22;23278;52.110;6.050;2024-01-16T07:39:54;1.40;99.90
37412;DHT22;23278;52.110;6.050;2024-01-16T07:42:20;1.40;99.90
37412;DHT22;23278;52.110;6.050;2024-01-16T07:44:46;1.40;99.90
37412;DHT22;23278;52.110;6.050;2024-01-16T07:47:15;1.50;99.90
37412;DHT22;23278;52.110;6.050;2024-01-16T07:49:41;1.50;99.90
37412;DHT22;23278;52.110;6.050;2024-01-16T07:52:08;1.50;99.90
37412;DHT22;23278;52.110;6.050;2024-01-16T07:54:34;1.50;99.90
37412;DHT22;23278;52.110;6.050;2024-01-16T07:57:00;1.50;99.90
37412;DHT22;23278;52.110;6.050;2024-01-16T07:59:26;1.50;99.90
37412;DHT22;23278;52.110;6.050;2024-01-16T08:01:52;1.50;99.90
37412;DHT22;23278;52.110;6.050;2024-01-16T08:04:19;1.50;99.90
37412;DHT22;23278;52.110;6.050;2024-01-16T08:06:46;1.40;99.90
37412;DHT22;23278;52.110;6.050;2024-01-16T08:09:12;1.40;99.90
37412;DHT22;23278;52.110;6.050;2024-01-16T08:11:39;1.40;99.90
37412;DHT22;23278;52.110;6.050;2024-01-16T08:14:05;1.40;99.90
37412;DHT22;23278;52.110;6.050;2024-01-16T08:16:31;1.40;99.90
37412;DHT22;23278;52.110;6.050;2024-01-16T08:18:57;1.40;99.90
37412;DHT22;23278;52.110;6.050;2024-01-16T08:21:24;1.40;99.90
37412;DHT22;23278;52.110;6.050;2024-01-16T08:23:55;1.40;99.90
37412;DHT22;23278;52.110;6.050;2024-01-16T08:26:21;1.50;99.90
37412;DHT22;23278;52.110;6.050;2024-01-16T08:28:47;1.50;99.90
37412;DHT22;23278;52.110;6.050;2024-01-16T08:31:17;1.60;99.90
37412;DHT22;23278;52.110;6.050;2024-01-16T08:33:45;1.60;99.90
37412;DHT22;23278;52.110;6.050;2024-01-16T08:36:12;1.60;99.90
37412;DHT22;23278;52.110;6.050;2024-01-16T08:38:38;1.60;99.90
37412;DHT22;23278;52.110;6.050;2024-01-16T08:41:04;1.60;99.90
37412;DHT22;23278;52.110;6.050;2024-01-16T08:43:33;1.70;99.90
37412;DHT22;23278;52.110;6.050;2024-01-16T08:45:59;1.70;99.90
37412;DHT22;23278;52.110;6.050;2024-01-16T08:48:26;1.60;99.90
37412;DHT22;23278;52.110;6.050;2024-01-16T08:50:52;1.60;99.90
37412;DHT22;23278;52.110;6.050;2024-01-16T08:53:20;1.60;99.90
37412;DHT22;23278;52.110;6.050;2024-01-16T08:55:49;1.60;99.90
37412;DHT22;23278;52.110;6.050;2024-01-16T08:58:15;1.60;99.90
37412;DHT22;23278;52.110;6.050;2024-01-16T09:00:41;1.50;99.90
37412;DHT22;23278;52.110;6.050;2024-01-16T09:03:07;1.50;99.90
37412;DHT22;23278;52.110;6.050;2024-01-16T09:05:34;1.50;99.90
37412;DHT22;23278;52.110;6.050;2024-01-16T09:08:04;1.50;99.90
37412;DHT22;23278;52.110;6.050;2024-01-16T09:10:30;1.50;99.90
37412;DHT22;23278;52.110;6.050;2024-01-16T09:12:56;1.60;99.90
37412;DHT22;23278;52.110;6.050;2024-01-16T09:15:22;1.60;99.90
37412;DHT22;23278;52.110;6.050;2024-01-16T09:17:48;1.60;99.90
37412;DHT22;23278;52.110;6.050;2024-01-16T09:20:14;1.80;99.90
37412;DHT22;23278;52.110;6.050;2024-01-16T09:22:40;1.90;99.90
37412;DHT22;23278;52.110;6.050;2024-01-16T09:25:06;2.00;99.90
37412;DHT22;23278;52.110;6.050;2024-01-16T09:27:32;2.00;99.90
37412;DHT22;23278;52.110;6.050;2024-01-16T09:29:59;2.00;99.90
37412;DHT22;23278;52.110;6.050;2024-01-16T09:32:25;2.10;99.90
37412;DHT22;23278;52.110;6.050;2024-01-16T09:34:51;2.10;99.90
37412;DHT22;23278;52.110;6.050;2024-01-16T09:37:17;2.10;99.90
37412;DHT22;23278;52.110;6.050;2024-01-16T09:39:44;2.10;99.90
37412;DHT22;23278;52.110;6.050;2024-01-16T09:42:10;2.20;99.90
37412;DHT22;23278;52.110;6.050;2024-01-16T09:44:36;2.10;99.90
37412;DHT22;23278;52.110;6.050;2024-01-16T09:47:02;2.20;99.90
37412;DHT22;23278;52.110;6.050;2024-01-16T09:49:29;2.20;99.90
37412;DHT22;23278;52.110;6.050;2024-01-16T09:51:56;2.30;99.90
37412;DHT22;23278;52.110;6.050;2024-01-16T09:54:27;2.30;99.90
37412;DHT22;23278;52.110;6.050;2024-01-16T09:56:54;2.30;99.90
37412;DHT22;23278;52.110;6.050;2024-01-16T09:59:24;2.40;99.90
37412;DHT22;23278;52.110;6.050;2024-01-16T10:01:54;2.50;99.90
37412;DHT22;23278;52.110;6.050;2024-01-16T10:04:21;2.50;99.90
37412;DHT22;23278;52.110;6.050;2024-01-16T10:06:48;2.60;99.90
37412;DHT22;23278;52.110;6.050;2024-01-16T10:09:15;2.70;99.90
37412;DHT22;23278;52.110;6.050;2024-01-16T10:11:42;2.90;99.90
37412;DHT22;23278;52.110;6.050;2024-01-16T10:14:08;3.10;99.90
37412;DHT22;23278;52.110;6.050;2024-01-16T10:17:03;3.30;99.90
37412;DHT22;23278;52.110;6.050;2024-01-16T10:19:50;3.40;99.90
37412;DHT22;23278;52.110;6.050;2024-01-16T10:22:25;3.90;99.90
37412;DHT22;23278;52.110;6.050;2024-01-16T10:25:09;4.50;99.90
37412;DHT22;23278;52.110;6.050;2024-01-16T10:27:39;5.70;99.90
37412;DHT22;23278;52.110;6.050;2024-01-16T10:30:06;6.60;99.50
37412;DHT22;23278;52.110;6.050;2024-01-16T10:32:36;7.60;97.60
37412;DHT22;23278;52.110;6.050;2024-01-16T10:35:08;8.40;93.80
37412;DHT22;23278;52.110;6.050;2024-01-16T10:37:50;9.10;92.70
37412;DHT22;23278;52.110;6.050;2024-01-16T10:40:18;9.40;90.60
37412;DHT22;23278;52.110;6.050;2024-01-16T10:42:45;10.00;86.00
37412;DHT22;23278;52.110;6.050;2024-01-16T10:45:18;10.40;83.80
37412;DHT22;23278;52.110;6.050;2024-01-16T10:47:49;11.00;82.70
37412;DHT22;23278;52.110;6.050;2024-01-16T10:50:26;11.80;79.90
37412;DHT22;23278;52.110;6.050;2024-01-16T10:52:54;12.50;76.00
37412;DHT22;23278;52.110;6.050;2024-01-16T10:55:23;12.80;72.60
37412;DHT22;23278;52.110;6.050;2024-01-16T10:57:51;12.30;71.00
37412;DHT22;23278;52.110;6.050;2024-01-16T11:00:21;11.50;71.10
37412;DHT22;23278;52.110;6.050;2024-01-16T11:03:07;10.70;71.00
37412;DHT22;23278;52.110;6.050;2024-01-16T11:05:36;9.90;71.30
37412;DHT22;23278;52.110;6.050;2024-01-16T11:08:03;9.40;72.80
37412;DHT22;23278;52.110;6.050;2024-01-16T11:10:32;8.90;73.50
37412;DHT22;23278;52.110;6.050;2024-01-16T11:13:01;8.30;74.10
37412;DHT22;23278;52.110;6.050;2024-01-16T11:15:29;7.80;75.90
37412;DHT22;23278;52.110;6.050;2024-01-16T11:18:00;7.50;76.70
37412;DHT22;23278;52.110;6.050;2024-01-16T11:20:31;7.10;77.90
37412;DHT22;23278;52.110;6.050;2024-01-16T11:22:59;6.80;79.40
37412;DHT22;23278;52.110;6.050;2024-01-16T11:25:35;6.60;79.90
37412;DHT22;23278;52.110;6.050;2024-01-16T11:28:15;6.40;80.70
37412;DHT22;23278;52.110;6.050;2024-01-16T11:30:42;6.40;81.80
37412;DHT22;23278;52.110;6.050;2024-01-16T11:36:02;6.40;82.70
37412;DHT22;23278;52.110;6.050;2024-01-16T11:38:30;6.50;82.30
37412;DHT22;23278;52.110;6.050;2024-01-16T11:41:01;6.60;81.80
37412;DHT22;23278;52.110;6.050;2024-01-16T11:46:09;7.00;81.20
37412;DHT22;23278;52.110;6.050;2024-01-16T11:48:35;7.10;80.20
37412;DHT22;23278;52.110;6.050;2024-01-16T11:51:23;7.20;80.50
37412;DHT22;23278;52.110;6.050;2024-01-16T11:53:49;7.20;80.60
37412;DHT22;23278;52.110;6.050;2024-01-16T12:01:11;7.70;79.70
37412;DHT22;23278;52.110;6.050;2024-01-16T12:03:37;8.00;78.60
37412;DHT22;23278;52.110;6.050;2024-01-16T12:06:04;8.20;78.30
37412;DHT22;23278;52.110;6.050;2024-01-16T12:08:32;8.50;77.30
37412;DHT22;23278;52.110;6.050;2024-01-16T12:10:58;8.70;76.20
37412;DHT22;23278;52.110;6.050;2024-01-16T12:13:28;9.10;77.00
37412;DHT22;23278;52.110;6.050;2024-01-16T12:16:03;9.50;75.10
37412;DHT22;23278;52.110;6.050;2024-01-16T12:18:30;9.60;74.20
37412;DHT22;23278;52.110;6.050;2024-01-16T12:20:57;9.70;72.20
37412;DHT22;23278;52.110;6.050;2024-01-16T12:23:25;9.70;71.30
37412;DHT22;23278;52.110;6.050;2024-01-16T12:25:54;9.90;71.70
37412;DHT22;23278;52.110;6.050;2024-01-16T12:28:21;10.30;70.50
37412;DHT22;23278;52.110;6.050;2024-01-16T12:30:50;10.20;67.50
37412;DHT22;23278;52.110;6.050;2024-01-16T12:33:24;9.70;68.00
37412;DHT22;23278;52.110;6.050;2024-01-16T12:35:50;9.20;69.80
37412;DHT22;23278;52.110;6.050;2024-01-16T12:38:30;9.00;70.40
37412;DHT22;23278;52.110;6.050;2024-01-16T12:40:56;8.60;70.70
37412;DHT22;23278;52.110;6.050;2024-01-16T12:43:23;8.30;71.00
37412;DHT22;23278;52.110;6.050;2024-01-16T12:45:56;7.90;71.90
37412;DHT22;23278;52.110;6.050;2024-01-16T12:48:23;7.60;73.50
37412;DHT22;23278;52.110;6.050;2024-01-16T12:50:50;7.30;74.20
37412;DHT22;23278;52.110;6.050;2024-01-16T12:53:21;7.10;74.90
37412;DHT22;23278;52.110;6.050;2024-01-16T12:55:57;6.90;76.10
37412;DHT22;23278;52.110;6.050;2024-01-16T12:58:24;6.80;76.60
37412;DHT22;23278;52.110;6.050;2024-01-16T13:00:53;6.70;77.40
37412;DHT22;23278;52.110;6.050;2024-01-16T13:03:29;6.70;77.80
37412;DHT22;23278;52.110;6.050;2024-01-16T13:05:57;6.90;77.50
37412;DHT22;23278;52.110;6.050;2024-01-16T13:08:24;7.00;77.70
37412;DHT22;23278;52.110;6.050;2024-01-16T13:11:04;7.40;77.40
37412;DHT22;23278;52.110;6.050;2024-01-16T13:13:31;8.70;78.00
37412;DHT22;23278;52.110;6.050;2024-01-16T13:15:58;10.20;71.80
37412;DHT22;23278;52.110;6.050;2024-01-16T13:18:28;11.40;68.00
37412;DHT22;23278;52.110;6.050;2024-01-16T13:20:57;12.30;65.20
37412;DHT22;23278;52.110;6.050;2024-01-16T13:23:24;12.60;62.10
37412;DHT22;23278;52.110;6.050;2024-01-16T13:26:29;12.50;61.10
37412;DHT22;23278;52.110;6.050;2024-01-16T13:28:56;12.50;60.70
37412;DHT22;23278;52.110;6.050;2024-01-16T13:31:22;12.40;59.20
37412;DHT22;23278;52.110;6.050;2024-01-16T13:33:51;12.10;60.40
37412;DHT22;23278;52.110;6.050;2024-01-16T13:36:17;12.00;61.00
37412;DHT22;23278;52.110;6.050;2024-01-16T13:38:43;12.00;59.50
37412;DHT22;23278;52.110;6.050;2024-01-16T13:41:10;12.00;59.90
37412;DHT22;23278;52.110;6.050;2024-01-16T13:43:37;11.80;59.60
37412;DHT22;23278;52.110;6.050;2024-01-16T13:46:03;11.30;59.50
37412;DHT22;23278;52.110;6.050;2024-01-16T13:48:29;10.60;60.30
37412;DHT22;23278;52.110;6.050;2024-01-16T13:50:55;9.90;61.60
37412;DHT22;23278;52.110;6.050;2024-01-16T13:53:26;9.30;63.10
37412;DHT22;23278;52.110;6.050;2024-01-16T13:55:53;8.90;64.30
37412;DHT22;23278;52.110;6.050;2024-01-16T13:58:22;8.50;65.60
37412;DHT22;23278;52.110;6.050;2024-01-16T14:00:48;8.10;66.60
37412;DHT22;23278;52.110;6.050;2024-01-16T14:03:14;7.80;67.60
37412;DHT22;23278;52.110;6.050;2024-01-16T14:05:49;7.70;68.70
37412;DHT22;23278;52.110;6.050;2024-01-16T14:08:19;7.70;68.70
37412;DHT22;23278;52.110;6.050;2024-01-16T14:10:44;7.60;69.10
37412;DHT22;23278;52.110;6.050;2024-01-16T14:13:14;7.60;69.40
37412;DHT22;23278;52.110;6.050;2024-01-16T14:15:40;7.40;69.30
37412;DHT22;23278;52.110;6.050;2024-01-16T14:18:06;7.20;70.00
37412;DHT22;23278;52.110;6.050;2024-01-16T14:20:31;7.10;70.50
37412;DHT22;23278;52.110;6.050;2024-01-16T14:22:58;7.20;70.70
37412;DHT22;23278;52.110;6.050;2024-01-16T14:25:25;7.20;70.60
37412;DHT22;23278;52.110;6.050;2024-01-16T14:30:47;7.20;72.00
37412;DHT22;23278;52.110;6.050;2024-01-16T14:33:17;7.30;70.30
37412;DHT22;23278;52.110;6.050;2024-01-16T14:35:44;7.00;70.30
37412;DHT22;23278;52.110;6.050;2024-01-16T14:38:10;6.60;71.00
37412;DHT22;23278;52.110;6.050;2024-01-16T14:40:36;6.30;72.00
37412;DHT22;23278;52.110;6.050;2024-01-16T14:43:02;6.10;72.90
37412;DHT22;23278;52.110;6.050;2024-01-16T14:45:34;5.80;74.00
37412;DHT22;23278;52.110;6.050;2024-01-16T14:48:00;5.60;74.90
37412;DHT22;23278;52.110;6.050;2024-01-16T14:50:26;5.40;75.00
37412;DHT22;23278;52.110;6.050;2024-01-16T14:52:52;5.20;75.70
37412;DHT22;23278;52.110;6.050;2024-01-16T14:55:19;5.00;76.50
37412;DHT22;23278;52.110;6.050;2024-01-16T14:57:48;4.90;77.20
37412;DHT22;23278;52.110;6.050;2024-01-16T15:00:28;4.70;78.00
37412;DHT22;23278;52.110;6.050;2024-01-16T15:02:59;4.60;78.30
37412;DHT22;23278;52.110;6.050;2024-01-16T15:05:25;4.50;79.00
37412;DHT22;23278;52.110;6.050;2024-01-16T15:07:51;4.50;80.40
37412;DHT22;23278;52.110;6.050;2024-01-16T15:10:20;4.80;81.40
37412;DHT22;23278;52.110;6.050;2024-01-16T15:12:47;5.10;81.30
37412;DHT22;23278;52.110;6.050;2024-01-16T15:15:14;5.40;80.30
37412;DHT22;23278;52.110;6.050;2024-01-16T15:17:42;5.60;78.80
37412;DHT22;23278;52.110;6.050;2024-01-16T15:20:12;5.40;78.10
37412;DHT22;23278;52.110;6.050;2024-01-16T15:22:47;5.00;78.50
37412;DHT22;23278;52.110;6.050;2024-01-16T15:25:19;4.70;79.40
37412;DHT22;23278;52.110;6.050;2024-01-16T15:27:53;4.40;80.40
37412;DHT22;23278;52.110;6.050;2024-01-16T15:30:20;4.10;81.00
37412;DHT22;23278;52.110;6.050;2024-01-16T15:32:50;3.90;81.80
37412;DHT22;23278;52.110;6.050;2024-01-16T15:35:17;3.70;82.50
37412;DHT22;23278;52.110;6.050;2024-01-16T15:37:45;3.50;83.80
37412;DHT22;23278;52.110;6.050;2024-01-16T15:40:11;3.30;84.20
37412;DHT22;23278;52.110;6.050;2024-01-16T15:42:38;3.20;85.00
37412;DHT22;23278;52.110;6.050;2024-01-16T15:45:08;3.10;85.60
37412;DHT22;23278;52.110;6.050;2024-01-16T15:47:38;3.00;85.80
37412;DHT22;23278;52.110;6.050;2024-01-16T15:50:05;2.90;86.60
37412;DHT22;23278;52.110;6.050;2024-01-16T15:52:32;2.70;86.90
37412;DHT22;23278;52.110;6.050;2024-01-16T15:54:58;2.60;87.20
37412;DHT22;23278;52.110;6.050;2024-01-16T15:57:24;2.50;88.00
37412;DHT22;23278;52.110;6.050;2024-01-16T15:59:50;2.40;88.60
37412;DHT22;23278;52.110;6.050;2024-01-16T16:02:16;2.40;89.10
37412;DHT22;23278;52.110;6.050;2024-01-16T16:04:50;2.30;89.40